createdAt,value
2018-10-11T00:00:10.999Z,61.30
2018-10-11T00:03:01.842Z,61.20
2018-10-11T00:05:52.627Z,61.50
2018-10-11T00:08:43.326Z,61.50
2018-10-11T00:11:34.028Z,61.50
2018-10-11T00:14:29.623Z,61.40
2018-10-11T00:17:20.985Z,61.30
2018-10-11T00:20:11.600Z,61.20
2018-10-11T00:23:02.331Z,61.10
2018-10-11T00:25:53.197Z,60.90
2018-10-11T00:28:45.486Z,61.00
2018-10-11T00:31:37.238Z,61.00
2018-10-11T00:34:28.221Z,61.10
2018-10-11T00:37:20.009Z,61.10
2018-10-11T00:40:11.985Z,60.90
2018-10-11T00:43:03.650Z,60.90
2018-10-11T00:45:55.293Z,60.90
2018-10-11T00:48:46.551Z,60.90
2018-10-11T00:51:38.115Z,60.90
2018-10-11T00:54:29.262Z,60.90
2018-10-11T00:57:20.869Z,61.20
2018-10-11T01:00:11.780Z,61.20
2018-10-11T01:03:02.416Z,61.20
2018-10-11T01:05:53.553Z,61.40
2018-10-11T01:08:44.778Z,61.50
2018-10-11T01:11:35.469Z,61.40
2018-10-11T01:14:26.141Z,61.50
2018-10-11T01:17:16.901Z,61.40
2018-10-11T01:20:08.818Z,61.50
2018-10-11T01:23:00.808Z,61.30
2018-10-11T01:25:51.549Z,61.20
2018-10-11T01:28:42.226Z,61.40
2018-10-11T01:31:32.882Z,61.40
2018-10-11T01:34:23.666Z,61.60
2018-10-11T01:37:15.121Z,61.70
2018-10-11T01:40:09.890Z,62.00
2018-10-11T01:43:13.764Z,62.20
2018-10-11T01:46:04.721Z,62.30
2018-10-11T01:48:55.482Z,62.40
2018-10-11T01:51:45.639Z,62.60
2018-10-11T01:54:37.895Z,62.70
2018-10-11T01:57:31.375Z,62.90
2018-10-11T02:00:22.742Z,63.10
2018-10-11T02:03:14.855Z,63.00
2018-10-11T02:06:07.589Z,62.90
2018-10-11T02:08:58.543Z,63.00
2018-10-11T02:11:49.486Z,62.90
2018-10-11T02:14:41.000Z,63.10
2018-10-11T02:17:32.221Z,63.20
2018-10-11T02:20:24.637Z,63.30
2018-10-11T02:23:15.800Z,63.30
2018-10-11T02:26:06.471Z,63.50
2018-10-11T02:28:59.413Z,63.50
2018-10-11T02:31:50.418Z,63.50
2018-10-11T02:34:41.208Z,63.40
2018-10-11T02:37:32.864Z,63.40
2018-10-11T02:40:24.008Z,63.50
2018-10-11T02:43:17.797Z,63.70
2018-10-11T02:46:08.591Z,63.70
2018-10-11T02:48:59.298Z,63.70
2018-10-11T02:51:54.200Z,63.80
2018-10-11T02:54:47.485Z,63.90
2018-10-11T02:57:45.636Z,64.00
2018-10-11T03:00:42.381Z,64.20
2018-10-11T03:03:34.693Z,64.20
2018-10-11T03:06:26.505Z,64.30
2018-10-11T03:09:18.682Z,64.30
2018-10-11T03:12:09.612Z,64.40
2018-10-11T03:15:01.850Z,64.40
2018-10-11T03:17:52.391Z,64.30
2018-10-11T03:20:44.542Z,64.30
2018-10-11T03:23:35.790Z,64.30
2018-10-11T03:26:29.772Z,64.20
2018-10-11T03:29:20.851Z,64.20
2018-10-11T03:34:47.229Z,63.20
2018-10-11T03:37:38.813Z,64.00
2018-10-11T03:40:30.325Z,63.70
2018-10-11T03:43:21.596Z,64.20
2018-10-11T03:46:13.481Z,64.30
2018-10-11T03:49:04.456Z,64.50
2018-10-11T03:51:55.599Z,64.70
2018-10-11T03:54:47.169Z,64.80
2018-10-11T03:57:38.700Z,65.10
2018-10-11T04:00:29.589Z,65.50
2018-10-11T04:03:20.231Z,65.60
2018-10-11T04:06:11.137Z,65.60
2018-10-11T04:09:02.770Z,65.60
2018-10-11T04:11:55.665Z,65.70
2018-10-11T04:14:47.966Z,65.80
2018-10-11T04:17:38.946Z,65.90
2018-10-11T04:20:29.797Z,66.00
2018-10-11T04:23:24.917Z,66.20
2018-10-11T04:26:16.427Z,66.20
2018-10-11T04:29:07.579Z,66.10
2018-10-11T04:31:58.020Z,66.10
2018-10-11T04:34:49.274Z,66.00
2018-10-11T04:37:39.764Z,66.00
2018-10-11T04:40:30.534Z,65.80
2018-10-11T04:43:22.355Z,65.80
2018-10-11T04:46:13.658Z,65.70
2018-10-11T04:49:04.995Z,65.70
2018-10-11T04:51:55.830Z,65.70
2018-10-11T04:54:48.052Z,65.80
2018-10-11T04:57:39.527Z,65.80
2018-10-11T05:00:31.290Z,65.80
2018-10-11T05:03:22.813Z,66.60
2018-10-11T05:06:13.885Z,66.00
2018-10-11T05:09:08.382Z,66.10
2018-10-11T05:12:02.075Z,65.90
2018-10-11T05:14:55.364Z,66.10
2018-10-11T05:17:50.404Z,66.40
2018-10-11T05:20:46.889Z,66.10
2018-10-11T05:23:45.806Z,66.20
2018-10-11T05:26:36.353Z,66.20
2018-10-11T05:29:28.377Z,66.20
2018-10-11T05:32:23.727Z,66.00
2018-10-11T05:35:16.140Z,65.80
2018-10-11T05:38:07.367Z,65.90
2018-10-11T05:40:59.676Z,65.80
2018-10-11T05:43:52.804Z,65.80
2018-10-11T05:46:47.639Z,65.70
2018-10-11T05:49:42.849Z,65.80
2018-10-11T05:52:35.903Z,65.60
2018-10-11T05:55:41.738Z,65.70
2018-10-11T05:59:04.885Z,65.60
2018-10-11T06:05:15.422Z,65.60
2018-10-11T06:08:11.638Z,64.60
2018-10-11T06:11:06.823Z,65.50
2018-10-11T06:14:03.568Z,64.40
2018-10-11T06:20:16.739Z,64.60
2018-10-11T06:23:14.078Z,64.50
2018-10-11T06:26:11.369Z,64.70
2018-10-11T06:29:10.549Z,64.70
2018-10-11T06:32:11.642Z,64.70
2018-10-11T06:35:07.690Z,64.50
2018-10-11T06:38:03.972Z,64.30
2018-10-11T06:41:04.928Z,64.50
2018-10-11T06:44:00.542Z,64.60
2018-10-11T06:46:54.966Z,64.60
2018-10-11T06:49:52.489Z,64.40
2018-10-11T06:59:20.269Z,64.80
2018-10-11T07:08:29.438Z,64.80
2018-10-11T07:11:23.368Z,64.50
2018-10-11T07:17:32.237Z,64.00
2018-10-11T07:20:27.464Z,63.70
2018-10-11T07:23:25.036Z,63.60
2018-10-11T07:26:21.058Z,63.80
2018-10-11T07:32:18.955Z,64.00
2018-10-11T07:35:22.351Z,64.10
2018-10-11T07:38:29.807Z,64.20
2018-10-11T07:41:26.754Z,64.20
2018-10-11T07:44:26.798Z,64.90
2018-10-11T07:53:24.602Z,64.40
2018-10-11T07:56:21.945Z,65.00
2018-10-11T07:59:38.636Z,64.10
2018-10-11T08:02:37.958Z,63.90
2018-10-11T08:08:56.247Z,63.70
2018-10-11T08:15:25.539Z,64.30
2018-10-11T08:18:23.929Z,64.70
2018-10-11T08:21:20.119Z,65.20
2018-10-11T08:31:25.584Z,65.80
2018-10-11T08:37:51.593Z,65.10
2018-10-11T08:40:49.675Z,65.10
2018-10-11T08:43:46.910Z,64.90
2018-10-11T08:46:42.075Z,64.80
2018-10-11T08:49:50.894Z,65.20
2018-10-11T08:52:44.221Z,65.50
2018-10-11T08:55:42.306Z,65.80
2018-10-11T08:58:40.701Z,66.20
2018-10-11T09:01:37.899Z,66.20
2018-10-11T09:04:30.923Z,66.30
2018-10-11T09:07:29.414Z,66.10
2018-10-11T09:10:30.558Z,65.70
2018-10-11T09:13:16.616Z,65.40
2018-10-11T09:16:12.096Z,65.50
2018-10-11T09:19:04.708Z,65.70
2018-10-11T09:21:58.206Z,65.70
2018-10-11T09:24:52.882Z,65.50
2018-10-11T09:27:47.499Z,65.60
2018-10-11T09:30:42.899Z,65.50
2018-10-11T09:33:39.582Z,65.20
2018-10-11T09:36:33.338Z,64.80
2018-10-11T09:39:30.728Z,64.50
2018-10-11T09:42:35.236Z,64.50
2018-10-11T09:45:37.077Z,64.40
2018-10-11T09:48:33.071Z,64.60
2018-10-11T09:51:35.398Z,64.70
2018-10-11T09:54:38.623Z,64.70
2018-10-11T09:57:57.293Z,64.70
2018-10-11T10:00:52.918Z,64.70
2018-10-11T10:07:41.481Z,64.70
2018-10-11T10:10:39.611Z,64.50
2018-10-11T10:13:33.904Z,64.40
2018-10-11T10:16:28.117Z,64.50
2018-10-11T10:19:23.325Z,64.40
2018-10-11T10:22:16.119Z,64.40
2018-10-11T10:25:11.201Z,64.50
2018-10-11T10:28:06.922Z,64.80
2018-10-11T10:31:38.560Z,65.00
2018-10-11T10:34:34.022Z,65.30
2018-10-11T10:37:25.969Z,65.40
2018-10-11T10:40:17.949Z,65.60
2018-10-11T10:46:18.380Z,65.90
2018-10-11T10:56:00.493Z,66.80
2018-10-11T10:58:55.100Z,67.00
2018-10-11T11:01:48.549Z,67.20
2018-10-11T11:04:41.597Z,67.40
2018-10-11T11:07:37.154Z,67.50
2018-10-11T11:10:28.860Z,67.50
2018-10-11T11:13:24.472Z,67.50
2018-10-11T11:16:19.097Z,67.60
2018-10-11T11:19:41.644Z,67.70
2018-10-11T11:22:35.276Z,67.70
2018-10-11T11:25:28.358Z,67.90
2018-10-11T11:28:35.182Z,68.00
2018-10-11T11:31:34.479Z,68.00
2018-10-11T11:34:31.158Z,67.90
2018-10-11T11:37:26.240Z,67.90
2018-10-11T11:40:23.034Z,68.00
2018-10-11T11:43:19.515Z,68.90
2018-10-11T11:46:12.346Z,69.30
2018-10-11T11:49:05.025Z,68.50
2018-10-11T11:51:58.033Z,68.20
2018-10-11T11:54:50.804Z,68.10
2018-10-11T11:57:44.290Z,68.00
2018-10-11T12:00:37.235Z,67.90
2018-10-11T12:03:30.206Z,67.90
2018-10-11T12:06:32.502Z,67.70
2018-10-11T12:09:28.074Z,67.70
2018-10-11T12:12:59.633Z,67.70
2018-10-11T12:15:58.677Z,67.70
2018-10-11T12:18:51.492Z,67.60
2018-10-11T12:21:44.022Z,67.60
2018-10-11T12:24:43.055Z,67.60
2018-10-11T12:27:40.072Z,67.70
2018-10-11T12:30:34.878Z,67.70
2018-10-11T12:33:28.902Z,67.80
2018-10-11T12:36:20.262Z,67.80
2018-10-11T12:39:13.452Z,67.80
2018-10-11T12:42:08.706Z,68.00
2018-10-11T12:45:02.220Z,68.10
2018-10-11T12:47:53.281Z,68.00
2018-10-11T12:50:55.310Z,68.20
2018-10-11T12:53:48.531Z,68.30
2018-10-11T12:56:38.623Z,68.50
2018-10-11T12:59:30.908Z,68.50
2018-10-11T13:02:23.243Z,68.50
2018-10-11T13:05:14.501Z,68.60
2018-10-11T13:08:04.688Z,68.70
2018-10-11T13:10:58.694Z,68.90
2018-10-11T13:13:52.021Z,69.00
2018-10-11T13:16:40.617Z,69.30
2018-10-11T13:19:31.794Z,69.50
2018-10-11T13:23:50.724Z,69.60
2018-10-11T13:26:42.779Z,69.70
2018-10-11T13:29:33.983Z,69.60
2018-10-11T13:32:24.932Z,69.90
2018-10-11T13:35:15.671Z,70.10
2018-10-11T13:38:07.434Z,70.20
2018-10-11T13:41:03.703Z,70.50
2018-10-11T13:43:52.197Z,70.70
2018-10-11T13:46:43.680Z,70.70
2018-10-11T13:49:34.494Z,70.70
2018-10-11T13:52:25.709Z,70.50
2018-10-11T13:55:16.411Z,70.40
2018-10-11T13:58:07.813Z,70.40
2018-10-11T14:00:58.356Z,70.40
2018-10-11T14:03:50.128Z,70.90
2018-10-11T14:06:40.768Z,70.60
2018-10-11T14:09:32.312Z,70.80
2018-10-11T14:12:28.849Z,71.00
2018-10-11T14:15:19.934Z,71.00
2018-10-11T14:18:12.402Z,71.20
2018-10-11T14:21:02.548Z,71.20
2018-10-11T14:23:53.478Z,71.30
2018-10-11T14:26:46.959Z,71.40
2018-10-11T14:29:37.904Z,71.50
2018-10-11T14:32:30.817Z,71.50
2018-10-11T14:35:23.706Z,71.00
2018-10-11T14:38:14.645Z,71.70
2018-10-11T14:41:05.383Z,72.10
2018-10-11T14:43:56.050Z,71.50
2018-10-11T14:46:46.928Z,71.40
2018-10-11T14:49:37.609Z,71.50
2018-10-11T14:52:28.650Z,71.40
2018-10-11T14:55:20.165Z,71.40
2018-10-11T14:58:11.924Z,71.40
2018-10-11T15:01:03.196Z,71.40
2018-10-11T15:03:54.207Z,71.40
2018-10-11T15:06:45.212Z,71.40
2018-10-11T15:09:38.053Z,71.50
2018-10-11T15:12:29.225Z,71.60
2018-10-11T15:15:19.917Z,71.60
2018-10-11T15:18:10.563Z,71.70
2018-10-11T15:21:01.604Z,71.70
2018-10-11T15:23:52.046Z,71.80
2018-10-11T15:26:45.117Z,71.80
2018-10-11T15:29:35.829Z,71.70
2018-10-11T15:32:27.746Z,71.70
2018-10-11T15:35:19.541Z,71.60
2018-10-11T15:38:11.267Z,72.20
2018-10-11T15:41:01.767Z,71.80
2018-10-11T15:43:55.254Z,71.70
2018-10-11T15:46:46.365Z,71.80
2018-10-11T15:49:37.319Z,71.70
2018-10-11T15:52:29.318Z,71.70
2018-10-11T15:55:20.131Z,71.80
2018-10-11T15:58:10.901Z,71.80
2018-10-11T16:01:01.055Z,71.70
2018-10-11T16:03:52.052Z,71.70
2018-10-11T16:06:42.925Z,71.70
2018-10-11T16:09:34.710Z,71.80
2018-10-11T16:12:26.817Z,71.90
2018-10-11T16:15:18.139Z,71.90
2018-10-11T16:18:09.348Z,72.00
2018-10-11T16:21:00.221Z,72.10
2018-10-11T16:23:50.577Z,72.10
2018-10-11T16:26:42.788Z,72.30
2018-10-11T16:29:33.040Z,72.30
2018-10-11T16:32:24.006Z,72.40
2018-10-11T16:35:14.876Z,72.50
2018-10-11T16:38:05.755Z,72.60
2018-10-11T16:40:57.252Z,72.60
2018-10-11T16:43:48.140Z,72.70
2018-10-11T16:46:39.679Z,72.80
2018-10-11T16:49:31.343Z,72.90
2018-10-11T16:52:22.648Z,73.00
2018-10-11T16:55:13.029Z,73.10
2018-10-11T16:58:04.293Z,73.20
2018-10-11T17:00:55.062Z,73.20
2018-10-11T17:03:45.763Z,73.20
2018-10-11T17:06:36.163Z,73.30
2018-10-11T17:09:27.461Z,73.50
2018-10-11T17:12:18.663Z,73.50
2018-10-11T17:15:09.275Z,73.50
2018-10-11T17:18:00.047Z,73.50
2018-10-11T17:20:50.399Z,73.50
2018-10-11T17:23:41.839Z,73.50
2018-10-11T17:26:32.623Z,73.60
2018-10-11T17:29:23.954Z,73.60
2018-10-11T17:32:15.107Z,73.70
2018-10-11T17:35:05.631Z,73.80
2018-10-11T17:37:56.653Z,73.90
2018-10-11T17:40:48.601Z,74.00
2018-10-11T17:43:39.451Z,74.10
2018-10-11T17:46:31.239Z,74.10
2018-10-11T17:49:22.584Z,74.00
2018-10-11T17:52:13.382Z,74.00
2018-10-11T17:55:06.126Z,74.00
2018-10-11T17:57:57.435Z,73.90
2018-10-11T18:00:49.777Z,73.80
2018-10-11T18:03:41.070Z,73.70
2018-10-11T18:06:33.190Z,73.50
2018-10-11T18:09:24.038Z,73.40
2018-10-11T18:12:15.645Z,73.30
2018-10-11T18:15:08.939Z,73.30
2018-10-11T18:17:59.540Z,73.40
2018-10-11T18:20:50.640Z,73.40
2018-10-11T18:23:44.440Z,73.30
2018-10-11T18:26:35.251Z,73.30
2018-10-11T18:29:26.591Z,73.30
2018-10-11T18:32:17.291Z,73.30
2018-10-11T18:35:08.297Z,73.50
2018-10-11T18:37:59.201Z,73.50
2018-10-11T18:40:49.608Z,73.70
2018-10-11T18:43:41.136Z,74.00
2018-10-11T18:46:31.514Z,74.00
2018-10-11T18:49:22.317Z,74.00
2018-10-11T18:52:13.681Z,73.80
2018-10-11T18:55:04.227Z,73.50
2018-10-11T18:57:55.052Z,73.40
2018-10-11T19:00:45.981Z,73.20
2018-10-11T19:03:36.967Z,73.00
2018-10-11T19:06:28.116Z,72.80
2018-10-11T19:09:18.820Z,73.10
2018-10-11T19:12:09.714Z,72.60
2018-10-11T19:15:00.527Z,72.60
2018-10-11T19:17:51.620Z,72.50
2018-10-11T19:20:42.492Z,72.50
2018-10-11T19:23:34.025Z,72.50
2018-10-11T19:26:29.437Z,72.40
2018-10-11T19:29:21.207Z,72.30
2018-10-11T19:32:12.472Z,72.20
2018-10-11T19:35:03.238Z,72.20
2018-10-11T19:37:56.094Z,72.20
2018-10-11T19:40:46.751Z,72.10
2018-10-11T19:43:38.809Z,72.20
2018-10-11T19:46:30.175Z,72.10
2018-10-11T19:49:20.944Z,72.10
2018-10-11T19:52:12.004Z,72.20
2018-10-11T19:55:04.162Z,72.30
2018-10-11T19:57:54.645Z,72.20
2018-10-11T20:00:45.669Z,72.30
2018-10-11T20:03:36.716Z,72.40
2018-10-11T20:06:27.305Z,72.50
2018-10-11T20:09:18.332Z,72.50
2018-10-11T20:12:08.701Z,72.60
2018-10-11T20:14:59.771Z,72.50
2018-10-11T20:17:50.552Z,72.50
2018-10-11T20:20:41.693Z,72.50
2018-10-11T20:23:32.890Z,72.40
2018-10-11T20:26:23.093Z,72.40
2018-10-11T20:29:14.037Z,72.40
2018-10-11T20:32:05.303Z,72.40
2018-10-11T20:34:56.506Z,72.40
2018-10-11T20:37:48.028Z,72.60
2018-10-11T20:40:38.493Z,72.60
2018-10-11T20:43:29.944Z,72.70
2018-10-11T20:46:20.924Z,72.70
2018-10-11T20:49:11.779Z,72.90
2018-10-11T20:52:02.636Z,72.90
2018-10-11T20:54:55.069Z,73.00
2018-10-11T20:57:45.445Z,73.10
2018-10-11T21:00:36.759Z,73.00
2018-10-11T21:03:27.235Z,73.10
2018-10-11T21:06:20.798Z,73.20
2018-10-11T21:09:14.025Z,73.20
2018-10-11T21:12:05.066Z,73.30
2018-10-11T21:14:56.064Z,73.40
2018-10-11T21:17:47.139Z,73.50
2018-10-11T21:20:37.861Z,73.60
2018-10-11T21:23:29.019Z,73.60
2018-10-11T21:26:20.719Z,73.50
2018-10-11T21:29:11.355Z,73.60
2018-10-11T21:32:03.254Z,73.70
2018-10-11T21:34:55.288Z,73.70
2018-10-11T21:37:45.926Z,73.80
2018-10-11T21:40:36.530Z,73.80
2018-10-11T21:43:30.690Z,73.90
2018-10-11T21:46:22.107Z,74.00
2018-10-11T21:49:12.905Z,74.00
2018-10-11T21:52:03.585Z,74.00
2018-10-11T21:54:54.303Z,74.10
2018-10-11T21:57:45.364Z,74.20
2018-10-11T22:00:39.183Z,74.20
2018-10-11T22:03:30.642Z,74.40
2018-10-11T22:06:21.588Z,74.50
2018-10-11T22:09:12.683Z,74.60
2018-10-11T22:12:08.980Z,74.60
2018-10-11T22:14:59.872Z,74.60
2018-10-11T22:17:50.768Z,74.70
2018-10-11T22:20:41.499Z,74.80
2018-10-11T22:23:31.971Z,74.90
2018-10-11T22:26:22.459Z,75.00
2018-10-11T22:29:13.018Z,75.00
2018-10-11T22:37:02.452Z,75.00
2018-10-11T22:39:53.259Z,74.90
2018-10-11T22:42:44.542Z,75.10
2018-10-11T22:45:34.971Z,75.30
2018-10-11T22:48:26.323Z,74.70
2018-10-11T22:51:17.214Z,75.50
2018-10-11T22:54:08.325Z,75.50
2018-10-11T22:56:59.075Z,75.40
2018-10-11T22:59:50.403Z,75.50
2018-10-11T23:02:41.152Z,75.60
2018-10-11T23:05:31.886Z,75.70
2018-10-11T23:08:22.626Z,75.70
2018-10-11T23:11:14.688Z,76.00
2018-10-11T23:14:06.945Z,76.00
2018-10-11T23:17:00.745Z,76.00
2018-10-11T23:19:51.372Z,75.90
2018-10-11T23:22:43.500Z,75.80
2018-10-11T23:25:34.320Z,75.90
2018-10-11T23:28:24.607Z,75.70
2018-10-11T23:31:15.904Z,75.60
2018-10-11T23:34:06.861Z,75.60
2018-10-11T23:36:57.777Z,75.70
2018-10-11T23:39:48.673Z,75.60
2018-10-11T23:42:39.398Z,75.50
2018-10-11T23:45:30.159Z,75.50
2018-10-11T23:48:21.216Z,75.40
2018-10-11T23:51:12.606Z,75.40
2018-10-11T23:54:03.129Z,75.30
2018-10-11T23:56:54.231Z,75.30
2018-10-11T23:59:45.084Z,75.20
